Flight Track Log - Related Links

Times and Time Zones

All times are in EDT time to prevent confusion due to time zone crossing. See the ABW102 flight status page for this flight to view local times or setup timezone preferences in your user account.

Time Position Orientation Groundspeed Altitude Reporting Facility
EDT Latitude Longitude Course Direction KTS MPH feet Rate Location/Type
Mon 05:45:45 AM 42.0167 -87.9667 20° North 178 205 2,700  Level Chicago TRACON
Mon 05:46:45 AM 42.0500 -87.9500 79° East 206 237 4,700 1,829 Climbing Chicago TRACON
Mon 05:48:29 AM 42.0711 -87.8003 68° East 251 289 7,700 2,159 Climbing Chicago Center
Mon 05:49:29 AM 42.1031 -87.6958 68° East 281 323 10,600 2,200 Climbing Chicago Center
Mon 05:50:29 AM 42.1386 -87.5744 69° East 314 361 12,100 2,200 Climbing Chicago Center
Mon 05:51:29 AM 42.1781 -87.4333 69° East 356 410 15,000 2,800 Climbing Chicago Center
Mon 05:53:29 AM 42.2606 -87.1392 77° East 414 476 20,500 2,700 Climbing Chicago Center
Mon 05:54:29 AM 42.2883 -86.9753 88° East 429 494 23,100 2,450 Climbing Chicago Center
Mon 05:55:29 AM 42.2931 -86.7983 88° East 455 524 25,400 2,350 Climbing Chicago Center
Mon 05:56:29 AM 42.2989 -86.5986 88° East 477 549 27,800 2,150 Climbing Chicago Center
Mon 05:57:29 AM 42.3031 -86.4383 87° East 477 549 29,700 1,850 Climbing Chicago Center
Mon 05:58:29 AM 42.3108 -86.2528 89° East 477 549 31,500 1,700 Climbing Chicago Center
Mon 05:59:29 AM 42.3139 -86.0672 90° East 483 556 33,100 1,450 Climbing Chicago Center
Mon 06:00:29 AM 42.3128 -85.8792 92° East 483 556 34,400 950 Climbing Chicago Center
Mon 06:01:29 AM 42.3086 -85.6856 90° East 499 574 35,000 238 Climbing Chicago Center
Mon 06:03:00 AM 42.3083 -85.3739 92° East 520 598 35,000  Level Cleveland Center
Mon 06:04:00 AM 42.3036 -85.1825 91° East 520 598 35,000  Level Cleveland Center
Mon 06:05:00 AM 42.3008 -84.9886 92° East 520 598 35,000  Level Cleveland Center
Mon 06:06:00 AM 42.2953 -84.8000 93° East 509 586 35,000 -50 Level Cleveland Center
Mon 06:07:00 AM 42.2875 -84.6086 88° East 515 593 34,900 -50 Descending Cleveland Center
Mon 06:08:00 AM 42.2919 -84.4206 79° East 505 581 34,900 50 Level Cleveland Center
Mon 06:09:00 AM 42.3189 -84.2283 79° East 513 590 35,000  Climbing Cleveland Center
Mon 06:10:00 AM 42.3458 -84.0389 79° East 513 590 34,900 -50 Descending Cleveland Center
Mon 06:11:00 AM 42.3722 -83.8492 79° East 518 596 34,900  Level Cleveland Center
Mon 06:12:00 AM 42.3956 -83.6817 89° East 518 596 34,900 50 Level Cleveland Center
Mon 06:13:00 AM 42.3989 -83.4681 91° East 513 590 35,000 50 Climbing Cleveland Center
Mon 06:14:00 AM 42.3972 -83.2825 92° East 508 585 35,000  Level Cleveland Center
Mon 06:15:00 AM 42.3931 -83.0939 93° East 508 585 35,000 -50 Level Cleveland Center
Mon 06:16:00 AM 42.3867 -82.9025 90° East 503 579 34,900 -550 Descending Cleveland Center
Mon 06:17:00 AM 42.3861 -82.7169 65° Northeast 495 570 33,900 -1,200 Descending Cleveland Center
Mon 06:18:00 AM 42.4456 -82.5472 59° Northeast 481 554 32,500 -1,350 Descending Cleveland Center
Mon 06:19:00 AM 42.5169 -82.3889 59° Northeast 487 560 31,200 -1,200 Descending Cleveland Center
Mon 06:20:00 AM 42.5839 -82.2356 60° Northeast 477 549 30,100 -1,050 Descending Cleveland Center
Mon 06:21:00 AM 42.6483 -82.0850 60° Northeast 471 542 29,100 -600 Descending Cleveland Center
Mon 06:22:00 AM 42.7128 -81.9339 63° Northeast 460 529 28,900 -426 Descending Cleveland Center
Mon 06:24:17 AM 42.8500 -81.5667 68° East 460 529 27,700 -1,157 Descending Toronto Center
Mon 06:25:17 AM 42.9000 -81.4000 56° Northeast 470 541 25,100 -1,850 Descending Toronto Center
Mon 06:26:17 AM 42.9667 -81.2667 59° Northeast 460 529 24,000 -1,900 Descending Toronto Center
Mon 06:27:17 AM 43.0333 -81.1167 52° Northeast 440 506 21,300 -2,650 Descending Toronto Center
Mon 06:28:17 AM 43.1000 -81.0000 56° Northeast 430 495 18,700 -3,050 Descending Toronto Center
Mon 06:29:17 AM 43.1667 -80.8667 46° Northeast 410 472 15,200 -3,150 Descending Toronto Center
Mon 06:30:17 AM 43.2500 -80.7500 59° Northeast 400 460 12,400 -2,300 Descending Toronto Center
Mon 06:31:17 AM 43.3000 -80.6333 50° Northeast 380 437 10,600 -1,150 Descending Toronto Center
Mon 06:32:17 AM 43.3500 -80.5500 50° Northeast 330 380 10,100 -1,100 Descending Toronto Center
Mon 06:33:17 AM 43.4000 -80.4667 55° Northeast 300 345 8,400 -1,150 Descending Toronto Center
Mon 06:34:17 AM 43.4500 -80.3667 79° East 300 345 7,800 -600 Descending Toronto Center
Mon 06:35:17 AM 43.4667 -80.2500 75° East 280 322 7,200 -350 Descending Toronto Center
Mon 06:36:17 AM 43.4833 -80.1667 90° East 270 311 7,100 -150 Descending Toronto Center
Mon 06:37:17 AM 43.4833 -80.0667 90° East 250 288 6,900 -600 Descending Toronto Center
Mon 06:38:17 AM 43.4833 -79.9833 90° East 230 265 5,900 -950 Descending Toronto Center
Mon 06:39:17 AM 43.4833 -79.9167 50° Northeast 210 242 5,000 -950 Descending Toronto Center
Mon 06:40:17 AM 43.5333 -79.8333 36° Northeast 200 230 4,000 -800 Descending Toronto Center
Mon 06:41:17 AM 43.5667 -79.8000 47° Northeast 200 230 3,400 -750 Descending Toronto Center
Mon 06:42:17 AM 43.6000 -79.7500 47° Northeast 190 219 2,500 -900 Descending Toronto Center
Mon 06:43:17 AM 43.6333 -79.7000 47° Northeast 180 207 1,600 -900 Descending Toronto Center

Login

Don't have an account? Register now (free) for customized features, flight alerts, and more!